Water Levels and Discharges  |  Reservoirs  |  Precipitation  |  Water quality Last site revision 31.10.2020 19:50:13
             
Water Levels and Discharges CAUTION: All data are without validation 31.10.2020 19:55:12
Any delay data CHMI stations is caused by the delay of data transfer between CHMI and the watershed, current data are on www.chmi.cz
All facilities Závod Karlovy Vary Závod Chomutov Závod Terezín
Measurement summary  31.10.2020All facilities
Station River Graph Last measured
Qa
Q355
Remark
water levelDischarge
[cm] ([h])[m3.s-1] ([h])[m3.s-1][m3.s-1]
 Jez Terezín dolní hladina  Ohře 144.86 * ( 19:30 )
 Jez Terezín horní hladina  Ohře 147.73 * ( 19:30 )
 LG Benešov nad Ploučnicí  Ploučnice 87 ( 19:30 ) 6.576 ( 19:30 ) 7.979 2.850
 LG Bílina (ČD)  Bílina 78 ( 19:30 ) 1.114 ( 19:30 ) 3.300 1.580
 LG Bílý Potok - Záluží  Bílý potok 27 ( 19:30 ) 0.193 ( 19:30 ) 0.280 0.040
 LG Březová  Teplá 18 ( 19:30 ) 2.803 ( 19:30 ) 2.730 0.230
 LG Brozany  Ohře 68 ( 19:30 ) 15.01 ( 19:30 ) 37.90 5.300
 LG Česká Lípa  Ploučnice 27 ( 19:30 ) 4.764 ( 19:30 ) 4.900 1.890
 LG Český Jiřetín  Flájský potok-HVT č. 152, 153, 163 44 ( 19:30 ) 0.290 ( 19:30 ) 1.000 0.080
 LG Cheb  Ohře 67 ( 19:30 ) 5.694 ( 19:30 ) 6.860 0.950
 LG Chomutov (MÚ)  Chomutovka 18 ( 19:30 ) 1.063 ( 19:30 ) 0.670 0.070
 LG Chřibská - odtok  Chřibská Kamenice 35 ( 19:30 ) 0.526 ( 19:30 ) 0.074 0.019
 LG Citice  Ohře 108 ( 19:30 ) 11.25 ( 19:30 ) 14.40 3.410
 LG Drahovice  Ohře 68 ( 19:30 ) 20.69 ( 19:30 ) 25.20 6.220
 LG Hačka - pod odlehčením  Hačka 2 ( 19:30 ) 0.016 ( 19:30 ) 0.010
 LG Horka  Libocký potok 38 ( 19:30 ) 0.714 ( 19:30 ) 0.559 0.087
 LG III. Mlýn  Chomutovka 33 ( 19:30 ) 0.839 ( 19:30 ) 0.540 0.050
 LG Janov - odtok  Loupnice 6 ( 19:30 ) 0.030 ( 19:30 ) 0.130 0.014
 LG Jánský most  Teplá 24 ( 19:30 ) 2.947 ( 19:30 ) 3.080 0.290
 LG Jesenice  Odrava-HVT č. 37 60 ( 19:30 ) 2.564 ( 19:30 ) 3.530 0.550
 LG Jirkov - odtok  Bílina 25 ( 19:30 ) 0.298 ( 19:30 ) 0.336 0.035
 LG Klášterec nad Ohří  Ohře 112 ( 19:30 ) 31.10 ( 19:30 ) 29.00 4.400
 LG Kraslice  Svatava-HVT č. 220 26 ( 19:30 ) 2.061 ( 19:30 ) 2.150 0.270
 LG Kryry  Blšanka 26 ( 19:30 ) 0.339 ( 19:30 ) 0.170
 LG Louny  Ohře 194 ( 19:30 ) 19.87 ( 19:30 ) 37.30 11.10
 LG Mimoň  Ploučnice 25 ( 19:30 ) 1.688 ( 19:30 ) 2.300 0.810
 LG Ostrov nad Ohří  Bystřice 20 ( 19:30 ) 1.615 ( 19:30 ) 2.060 0.230
 LG Pertoltice  Panenský potok 29 ( 19:30 ) 0.744 ( 19:30 ) 1.080 0.310
 LG Podhora  Teplá 21 ( 19:30 ) 0.031 ( 19:30 ) 0.215 0.027
 LG Přísečnice  Přísečnický potok 9 ( 19:30 ) 0.098 ( 19:30 ) 1.010 0.113
 LG Srbská Kamenice  Kamenice 63 ( 19:30 ) 3.764 ( 19:30 ) 1.080 0.390
 LG Stanovice  Lomnický potok 17 ( 19:30 ) 0.081 ( 19:30 ) 0.560 0.050
 LG Stará Role  Rolava 45 ( 19:30 ) 2.783 ( 19:30 ) 2.500 0.540
 LG Stranná  Ohře 36 ( 19:30 ) 16.82 ( 19:30 ) 30.70 4.600
 LG Stráž pod Ralskem - město  Ploučnice 41 ( 19:30 ) 0.681 ( 19:30 ) 1.000 0.340
 LG Svatava  Svatava-HVT č. 220 45 ( 19:30 ) 4.120 ( 19:30 ) 4.510 0.952
 LG Teplička  Teplá 35 ( 19:30 ) 2.533 ( 19:30 ) 2.470 0.220
 LG Trmice  Bílina 106 ( 19:30 ) 3.011 ( 19:30 ) 7.240 2.480
 LG Újezd  Bílina 17 ( 19:30 ) 0.441 ( 19:30 ) 0.860 0.090
 LG Varnsdorf  Mandava - HVT č.14 48 ( 19:30 ) 3.847 ( 19:30 ) 0.800 0.214
 LG Vědlice  Úštěcký potok 27 ( 19:30 ) 0.421 ( 19:30 ) 0.330 0.078
 LG Vilémov  Liboc 27 ( 19:30 ) 0.236 ( 19:30 ) 0.160
 LG Všechlapy - odtok  Bouřlivec 39 ( 19:30 ) 0.266 ( 19:30 ) 0.978 0.156
 LG Zahrádky  Robečský p. (Mlýnský) 47 ( 19:30 ) 0.441 ( 19:30 ) 1.200 0.240
 LG Zákupy  Svitávka 64 ( 19:30 ) 2.544 ( 19:30 ) 1.000 0.285
 LG Žatec  Ohře 29 ( 19:30 ) 17.18 ( 19:30 ) 32.30 4.800
* [m asl]
Qaaverage discharge
Q355average daily discharge reached or exceeded 355 days a year
  Povodí Ohře, státní podnik © 2020 The system uses also data from measuring stations of   Czech Hydrometeorological Institute © 2020 Application developed by   MGE Data s.r.o. © 1996 - 2015